createdAt,value
2018-07-27T00:00:39.858Z,30.40
2018-07-27T00:03:08.698Z,30.34
2018-07-27T00:05:37.604Z,30.30
2018-07-27T00:08:06.480Z,30.35
2018-07-27T00:10:35.389Z,30.52
2018-07-27T00:13:04.298Z,30.39
2018-07-27T00:15:33.301Z,30.26
2018-07-27T00:18:02.152Z,30.31
2018-07-27T00:20:31.001Z,30.31
2018-07-27T00:22:59.858Z,30.26
2018-07-27T00:25:28.839Z,30.25
2018-07-27T00:27:57.746Z,30.22
2018-07-27T00:30:26.578Z,30.24
2018-07-27T00:32:55.428Z,30.17
2018-07-27T00:35:24.294Z,30.01
2018-07-27T00:37:53.172Z,30.02
2018-07-27T00:40:22.027Z,30.22
2018-07-27T00:42:52.466Z,30.09
2018-07-27T00:45:21.355Z,30.08
2018-07-27T00:47:50.213Z,29.96
2018-07-27T00:50:19.089Z,29.99
2018-07-27T00:52:47.992Z,29.86
2018-07-27T00:55:16.907Z,29.85
2018-07-27T00:57:45.784Z,29.82
2018-07-27T01:00:14.757Z,29.75
2018-07-27T01:02:43.623Z,29.71
2018-07-27T01:05:12.501Z,29.67
2018-07-27T01:07:41.331Z,29.62
2018-07-27T01:10:10.208Z,29.61
2018-07-27T01:12:39.015Z,29.82
2018-07-27T01:15:07.951Z,29.70
2018-07-27T01:17:36.783Z,29.61
2018-07-27T01:20:06.713Z,29.54
2018-07-27T01:22:35.587Z,29.52
2018-07-27T01:25:04.540Z,29.47
2018-07-27T01:27:33.449Z,29.64
2018-07-27T01:30:02.284Z,29.44
2018-07-27T01:32:31.147Z,29.44
2018-07-27T01:35:00.063Z,29.38
2018-07-27T01:37:29.040Z,29.56
2018-07-27T01:39:57.824Z,29.36
2018-07-27T01:42:26.734Z,29.34
2018-07-27T01:44:55.609Z,29.29
2018-07-27T01:47:33.200Z,29.27
2018-07-27T01:50:02.109Z,29.24
2018-07-27T01:52:31.044Z,29.12
2018-07-27T01:54:59.911Z,29.03
2018-07-27T01:57:28.835Z,28.93
2018-07-27T01:59:57.745Z,28.92
2018-07-27T02:02:26.671Z,28.89
2018-07-27T02:04:55.611Z,28.89
2018-07-27T02:07:24.462Z,28.84
2018-07-27T02:09:53.855Z,28.84
2018-07-27T02:12:22.743Z,28.79
2018-07-27T02:14:51.665Z,28.73
2018-07-27T02:17:20.468Z,28.75
2018-07-27T02:19:49.376Z,28.92
2018-07-27T02:22:18.310Z,28.97
2018-07-27T02:24:47.178Z,28.77
2018-07-27T02:27:16.085Z,28.72
2018-07-27T02:29:44.963Z,28.69
2018-07-27T02:32:13.952Z,28.91
2018-07-27T02:34:42.815Z,28.73
2018-07-27T02:37:11.679Z,28.71
2018-07-27T02:39:40.574Z,28.69
2018-07-27T02:42:09.414Z,28.59
2018-07-27T02:44:38.332Z,28.58
2018-07-27T02:47:07.270Z,28.83
2018-07-27T02:49:36.126Z,28.65
2018-07-27T02:52:05.025Z,28.55
2018-07-27T02:54:37.546Z,28.51
2018-07-27T02:57:06.423Z,28.44
2018-07-27T02:59:35.296Z,28.42
2018-07-27T03:02:04.214Z,28.39
2018-07-27T03:04:33.177Z,28.31
2018-07-27T03:07:01.953Z,28.23
2018-07-27T03:09:30.969Z,28.14
2018-07-27T03:11:59.773Z,28.04
2018-07-27T03:14:28.645Z,28.08
2018-07-27T03:16:57.492Z,28.03
2018-07-27T03:19:27.023Z,27.97
2018-07-27T03:21:56.084Z,27.92
2018-07-27T03:24:25.038Z,27.86
2018-07-27T03:26:53.904Z,28.07
2018-07-27T03:29:22.782Z,27.89
2018-07-27T03:31:51.688Z,27.87
2018-07-27T03:34:20.632Z,27.87
2018-07-27T03:36:49.468Z,27.74
2018-07-27T03:39:21.430Z,27.71
2018-07-27T03:41:50.308Z,27.67
2018-07-27T03:44:19.201Z,27.61
2018-07-27T03:46:48.071Z,27.58
2018-07-27T03:49:17.184Z,27.57
2018-07-27T03:51:46.089Z,27.49
2018-07-27T03:54:14.973Z,27.50
2018-07-27T03:56:43.902Z,27.46
2018-07-27T03:59:12.772Z,27.38
2018-07-27T04:01:42.533Z,27.38
2018-07-27T04:04:11.406Z,27.42
2018-07-27T04:06:40.265Z,27.47
2018-07-27T04:09:09.771Z,27.44
2018-07-27T04:11:39.183Z,27.43
2018-07-27T04:14:08.326Z,27.44
2018-07-27T04:16:37.428Z,27.40
2018-07-27T04:19:06.382Z,27.40
2018-07-27T04:21:35.330Z,27.42
2018-07-27T04:24:04.192Z,27.42
2018-07-27T04:26:33.085Z,27.43
2018-07-27T04:29:01.932Z,27.38
2018-07-27T04:31:30.810Z,27.38
2018-07-27T04:33:59.732Z,27.38
2018-07-27T04:36:28.606Z,27.35
2018-07-27T04:38:57.460Z,27.40
2018-07-27T04:41:26.387Z,27.40
2018-07-27T04:43:55.474Z,27.39
2018-07-27T04:46:24.370Z,27.31
2018-07-27T04:48:53.267Z,27.40
2018-07-27T04:51:22.207Z,27.41
2018-07-27T04:53:51.034Z,27.45
2018-07-27T04:56:19.902Z,27.52
2018-07-27T04:58:48.783Z,27.55
2018-07-27T05:01:17.648Z,27.55
2018-07-27T05:03:46.501Z,27.76
2018-07-27T05:06:15.367Z,27.62
2018-07-27T05:09:02.013Z,27.64
2018-07-27T05:11:30.809Z,27.61
2018-07-27T05:13:59.682Z,27.63
2018-07-27T05:16:28.588Z,27.66
2018-07-27T05:18:57.447Z,27.72
2018-07-27T05:21:26.387Z,27.73
2018-07-27T05:23:55.287Z,27.78
2018-07-27T05:26:25.311Z,27.87
2018-07-27T05:28:54.226Z,28.09
2018-07-27T05:31:23.148Z,28.01
2018-07-27T05:33:52.015Z,28.03
2018-07-27T05:36:20.923Z,28.06
2018-07-27T05:38:49.711Z,28.13
2018-07-27T05:41:18.666Z,28.18
2018-07-27T05:43:47.501Z,28.21
2018-07-27T05:46:16.362Z,28.21
2018-07-27T05:48:45.298Z,28.22
2018-07-27T05:51:14.029Z,28.21
2018-07-27T05:53:42.933Z,28.27
2018-07-27T05:56:11.896Z,28.36
2018-07-27T05:58:40.739Z,28.47
2018-07-27T06:01:09.617Z,28.59
2018-07-27T06:03:38.500Z,28.80
2018-07-27T06:06:07.851Z,29.02
2018-07-27T06:08:36.778Z,29.20
2018-07-27T06:11:05.745Z,29.61
2018-07-27T06:13:34.592Z,29.93
2018-07-27T06:16:03.437Z,30.00
2018-07-27T06:18:32.487Z,30.20
2018-07-27T06:21:01.405Z,30.73
2018-07-27T06:23:30.275Z,32.49
2018-07-27T06:25:59.163Z,34.23
2018-07-27T06:28:28.044Z,35.53
2018-07-27T06:30:58.176Z,36.56
2018-07-27T06:33:27.036Z,37.29
2018-07-27T06:35:55.936Z,37.96
2018-07-27T06:38:24.810Z,38.58
2018-07-27T06:40:53.703Z,38.71
2018-07-27T06:43:22.569Z,38.89
2018-07-27T06:45:51.494Z,38.46
2018-07-27T06:48:21.037Z,36.48
2018-07-27T06:50:51.475Z,36.16
2018-07-27T06:53:20.465Z,35.79
2018-07-27T06:55:49.382Z,35.61
2018-07-27T06:58:18.292Z,35.51
2018-07-27T07:00:47.158Z,35.38
2018-07-27T07:03:16.002Z,35.20
2018-07-27T07:05:44.901Z,35.02
2018-07-27T07:08:13.820Z,34.61
2018-07-27T07:10:42.656Z,34.66
2018-07-27T07:13:11.545Z,34.77
2018-07-27T07:15:40.433Z,34.91
2018-07-27T07:18:09.551Z,35.10
2018-07-27T07:20:38.453Z,35.17
2018-07-27T07:23:07.359Z,35.38
2018-07-27T07:25:36.418Z,35.25
2018-07-27T07:28:05.102Z,35.14
2018-07-27T07:30:34.000Z,35.01
2018-07-27T07:33:02.937Z,35.37
2018-07-27T07:35:31.879Z,35.71
2018-07-27T07:38:00.741Z,35.93
2018-07-27T07:40:29.601Z,35.91
2018-07-27T07:42:58.516Z,36.21
2018-07-27T07:45:27.387Z,36.50
2018-07-27T07:47:56.248Z,36.65
2018-07-27T07:50:25.164Z,36.85
2018-07-27T07:52:54.054Z,37.11
2018-07-27T07:55:22.997Z,37.12
2018-07-27T07:58:27.414Z,37.24
2018-07-27T08:00:57.016Z,37.38
2018-07-27T08:03:26.068Z,37.39
2018-07-27T08:05:55.103Z,37.14
2018-07-27T08:08:23.898Z,37.21
2018-07-27T08:10:52.814Z,37.16
2018-07-27T08:13:21.684Z,37.26
2018-07-27T08:15:50.529Z,37.26
2018-07-27T08:18:19.381Z,37.13
2018-07-27T08:20:48.236Z,37.08
2018-07-27T08:23:17.168Z,37.33
2018-07-27T08:26:30.783Z,37.64
2018-07-27T08:28:59.679Z,37.73
2018-07-27T08:31:28.536Z,38.13
2018-07-27T08:33:57.617Z,38.17
2018-07-27T08:36:26.536Z,38.08
2018-07-27T08:38:55.468Z,37.93
2018-07-27T08:41:27.226Z,38.15
2018-07-27T08:43:56.105Z,38.14
2018-07-27T08:46:25.033Z,38.43
2018-07-27T08:48:53.875Z,38.61
2018-07-27T08:51:22.791Z,38.60
2018-07-27T08:53:56.997Z,38.81
2018-07-27T08:56:34.110Z,39.16
2018-07-27T08:59:06.695Z,39.60
2018-07-27T09:01:45.757Z,39.54
2018-07-27T09:04:23.838Z,39.93
2018-07-27T09:06:55.711Z,39.81
2018-07-27T09:09:30.541Z,40.16
2018-07-27T09:11:59.664Z,39.87
2018-07-27T09:14:29.119Z,40.26
2018-07-27T09:17:01.363Z,40.80
2018-07-27T09:19:31.441Z,40.46
2018-07-27T09:22:01.014Z,40.51
2018-07-27T09:24:33.543Z,40.89
2018-07-27T09:27:05.334Z,40.96
2018-07-27T09:29:35.052Z,41.02
2018-07-27T09:32:06.048Z,41.13
2018-07-27T09:34:37.962Z,41.55
2018-07-27T09:37:15.113Z,42.17
2018-07-27T09:39:45.241Z,42.59
2018-07-27T09:42:17.332Z,43.28
2018-07-27T09:44:46.273Z,44.17
2018-07-27T09:47:15.779Z,45.86
2018-07-27T09:49:50.697Z,45.98
2018-07-27T09:52:19.719Z,45.96
2018-07-27T09:54:53.219Z,46.14
2018-07-27T09:57:23.262Z,46.48
2018-07-27T09:59:52.647Z,46.31
2018-07-27T10:02:22.199Z,46.65
2018-07-27T10:04:51.373Z,46.67
2018-07-27T10:07:20.867Z,46.73
2018-07-27T10:09:52.385Z,46.84
2018-07-27T10:12:24.759Z,47.19
2018-07-27T10:14:53.862Z,47.47
2018-07-27T10:17:23.099Z,47.95
2018-07-27T10:19:54.626Z,47.62
2018-07-27T10:22:33.961Z,48.10
2018-07-27T10:25:15.320Z,48.04
2018-07-27T10:27:41.420Z,47.03
2018-07-27T10:30:11.063Z,47.49
2018-07-27T10:32:40.377Z,47.71
2018-07-27T10:35:12.338Z,47.35
2018-07-27T10:37:48.100Z,47.29
2018-07-27T10:40:18.837Z,47.26
2018-07-27T10:42:54.093Z,46.79
2018-07-27T10:45:28.567Z,46.62
2018-07-27T10:47:57.992Z,46.38
2018-07-27T10:50:27.142Z,46.16
2018-07-27T10:52:59.294Z,46.08
2018-07-27T10:55:28.574Z,46.29
2018-07-27T10:58:00.501Z,46.14
2018-07-27T11:00:29.684Z,45.90
2018-07-27T11:03:07.182Z,45.39
2018-07-27T11:05:39.288Z,45.44
2018-07-27T11:08:13.382Z,45.23
2018-07-27T11:10:42.946Z,45.23
2018-07-27T11:13:17.575Z,45.14
2018-07-27T11:15:50.339Z,44.80
2018-07-27T11:18:16.717Z,45.25
2018-07-27T11:20:49.418Z,44.19
2018-07-27T11:23:19.610Z,44.99
2018-07-27T11:25:52.156Z,44.33
2018-07-27T11:28:25.740Z,44.24
2018-07-27T11:30:57.699Z,44.45
2018-07-27T11:33:30.950Z,44.18
2018-07-27T11:36:00.125Z,44.20
2018-07-27T11:38:29.980Z,44.40
2018-07-27T11:40:59.115Z,45.52
2018-07-27T11:43:29.398Z,44.86
2018-07-27T11:46:07.366Z,44.68
2018-07-27T11:48:49.904Z,44.74
2018-07-27T11:51:23.315Z,44.99
2018-07-27T11:53:55.016Z,44.31
2018-07-27T11:56:24.098Z,44.42
2018-07-27T11:58:55.622Z,44.51
2018-07-27T12:01:25.028Z,44.56
2018-07-27T12:04:00.517Z,44.13
2018-07-27T12:06:30.666Z,43.89
2018-07-27T12:09:11.532Z,43.54
2018-07-27T12:11:40.983Z,43.16
2018-07-27T12:14:14.395Z,42.63
2018-07-27T12:16:45.939Z,42.18
2018-07-27T12:19:20.032Z,41.92
2018-07-27T12:21:47.102Z,41.54
2018-07-27T12:24:16.460Z,41.20
2018-07-27T12:26:53.343Z,40.79
2018-07-27T12:29:22.521Z,40.81
2018-07-27T12:31:58.606Z,40.63
2018-07-27T12:34:30.116Z,40.74
2018-07-27T12:37:01.911Z,40.90
2018-07-27T12:39:31.190Z,40.93
2018-07-27T12:42:00.300Z,40.96
2018-07-27T12:44:33.320Z,40.79
2018-07-27T12:47:06.611Z,40.45
2018-07-27T12:49:37.027Z,40.23
2018-07-27T12:52:06.508Z,40.27
2018-07-27T12:54:38.579Z,40.39
2018-07-27T12:57:16.004Z,40.32
2018-07-27T12:59:42.332Z,40.30
2018-07-27T13:02:14.380Z,40.26
2018-07-27T13:04:43.895Z,40.30
2018-07-27T13:07:14.470Z,40.34
2018-07-27T13:09:46.091Z,40.53
2018-07-27T13:12:16.235Z,40.52
2018-07-27T13:14:48.032Z,40.36
2018-07-27T13:17:17.113Z,40.34
2018-07-27T13:19:48.734Z,40.16
2018-07-27T13:22:17.910Z,40.32
2018-07-27T13:25:02.192Z,40.31
2018-07-27T13:27:16.293Z,40.27
2018-07-27T13:29:48.908Z,39.98
2018-07-27T13:32:16.658Z,40.18
2018-07-27T13:34:55.520Z,40.19
2018-07-27T13:37:28.691Z,39.90
2018-07-27T13:40:02.238Z,39.99
2018-07-27T13:42:32.501Z,39.95
2018-07-27T13:45:03.094Z,40.01
2018-07-27T13:47:32.574Z,39.93
2018-07-27T13:50:04.962Z,39.84
2018-07-27T13:52:37.332Z,39.64
2018-07-27T13:55:07.140Z,39.38
2018-07-27T13:57:39.343Z,39.05
2018-07-27T14:00:07.695Z,39.02
2018-07-27T14:02:36.940Z,39.02
2018-07-27T14:05:11.629Z,39.05
2018-07-27T14:07:40.366Z,38.90
2018-07-27T14:10:12.533Z,39.00
2018-07-27T14:12:44.413Z,39.00
2018-07-27T14:15:13.314Z,38.98
2018-07-27T14:17:44.550Z,39.00
2018-07-27T14:20:13.819Z,39.05
2018-07-27T14:22:50.368Z,39.02
2018-07-27T14:25:19.735Z,39.16
2018-07-27T14:27:49.219Z,39.13
2018-07-27T14:30:20.540Z,39.09
2018-07-27T14:32:50.235Z,39.13
2018-07-27T14:35:22.290Z,39.14
2018-07-27T14:37:51.645Z,39.20
2018-07-27T14:40:23.848Z,39.09
2018-07-27T14:42:59.399Z,38.85
2018-07-27T14:45:29.788Z,38.77
2018-07-27T14:48:02.692Z,38.85
2018-07-27T14:50:33.511Z,38.94
2018-07-27T14:53:03.597Z,39.00
2018-07-27T14:55:36.021Z,39.02
2018-07-27T14:58:06.803Z,38.99
2018-07-27T15:00:36.202Z,38.98
2018-07-27T15:03:06.385Z,38.87
2018-07-27T15:05:36.505Z,38.84
2018-07-27T15:08:06.401Z,38.90
2018-07-27T15:10:37.247Z,38.88
2018-07-27T15:13:06.673Z,38.72
2018-07-27T15:15:39.029Z,38.60
2018-07-27T15:18:13.553Z,38.49
2018-07-27T15:20:41.025Z,38.42
2018-07-27T15:23:10.488Z,38.47
2018-07-27T15:25:40.362Z,38.57
2018-07-27T15:28:11.927Z,38.55
2018-07-27T15:30:42.707Z,38.61
2018-07-27T15:33:12.691Z,38.29
2018-07-27T15:35:44.948Z,38.37
2018-07-27T15:38:12.450Z,38.31
2018-07-27T15:40:47.444Z,38.36
2018-07-27T15:43:19.216Z,38.41
2018-07-27T15:45:48.982Z,38.43
2018-07-27T15:48:20.774Z,38.44
2018-07-27T15:50:50.062Z,38.31
2018-07-27T15:53:19.106Z,38.44
2018-07-27T15:55:50.947Z,38.43
2018-07-27T15:58:23.582Z,38.39
2018-07-27T16:00:56.026Z,38.35
2018-07-27T16:03:25.143Z,38.30
2018-07-27T16:06:02.005Z,38.15
2018-07-27T16:08:31.285Z,38.00
2018-07-27T16:11:00.816Z,38.13
2018-07-27T16:13:30.079Z,38.04
2018-07-27T16:15:59.222Z,38.04
2018-07-27T16:18:28.287Z,38.05
2018-07-27T16:21:10.902Z,38.11
2018-07-27T16:23:45.873Z,38.08
2018-07-27T16:26:15.514Z,38.01
2018-07-27T16:28:48.356Z,37.97
2018-07-27T16:31:17.988Z,37.89
2018-07-27T16:33:52.705Z,37.91
2018-07-27T16:36:21.894Z,37.88
2018-07-27T16:38:51.105Z,37.78
2018-07-27T16:41:20.387Z,37.79
2018-07-27T16:43:49.567Z,37.76
2018-07-27T16:46:22.420Z,37.78
2018-07-27T16:48:53.402Z,37.80
2018-07-27T16:51:22.679Z,37.76
2018-07-27T16:53:52.139Z,37.81
2018-07-27T16:56:24.342Z,37.86
2018-07-27T16:59:05.384Z,37.92
2018-07-27T17:01:33.466Z,37.97
2018-07-27T17:04:03.399Z,37.99
2018-07-27T17:06:36.428Z,38.01
2018-07-27T17:09:08.883Z,38.04
2018-07-27T17:11:38.017Z,38.36
2018-07-27T17:14:07.435Z,38.49
2018-07-27T17:16:39.397Z,38.73
2018-07-27T17:19:09.521Z,38.93
2018-07-27T17:21:40.559Z,38.95
2018-07-27T17:24:11.266Z,38.92
2018-07-27T17:26:45.165Z,38.73
2018-07-27T17:29:16.947Z,38.84
2018-07-27T17:31:46.139Z,38.87
2018-07-27T17:34:18.160Z,38.88
2018-07-27T17:36:47.919Z,38.97
2018-07-27T17:39:17.345Z,38.78
2018-07-27T17:41:49.234Z,38.46
2018-07-27T17:44:18.413Z,38.42
2018-07-27T17:46:48.102Z,38.43
2018-07-27T17:49:17.701Z,38.49
2018-07-27T17:51:50.142Z,38.51
2018-07-27T17:54:19.534Z,38.38
2018-07-27T17:56:51.956Z,38.13
2018-07-27T17:59:21.307Z,37.92
2018-07-27T18:01:50.708Z,37.66
2018-07-27T18:04:28.003Z,37.51
2018-07-27T18:06:58.362Z,37.46
2018-07-27T18:09:27.739Z,37.16
2018-07-27T18:11:57.307Z,37.11
2018-07-27T18:14:26.577Z,37.11
2018-07-27T18:16:55.741Z,37.15
2018-07-27T18:19:26.887Z,37.05
2018-07-27T18:21:59.169Z,37.05
2018-07-27T18:24:28.734Z,36.96
2018-07-27T18:26:58.549Z,36.85
2018-07-27T18:29:27.945Z,36.82
2018-07-27T18:31:57.890Z,36.56
2018-07-27T18:34:27.074Z,36.64
2018-07-27T18:37:02.769Z,36.59
2018-07-27T18:39:32.201Z,36.47
2018-07-27T18:42:01.716Z,36.42
2018-07-27T18:44:30.816Z,36.36
2018-07-27T18:47:07.869Z,36.36
2018-07-27T18:49:34.740Z,36.31
2018-07-27T18:52:04.195Z,36.15
2018-07-27T18:54:33.460Z,35.82
2018-07-27T18:57:03.375Z,35.68
2018-07-27T18:59:32.986Z,35.48
2018-07-27T19:02:08.777Z,35.41
2018-07-27T19:04:40.846Z,35.30
2018-07-27T19:07:10.776Z,35.24
2018-07-27T19:09:40.678Z,35.10
2018-07-27T19:12:10.150Z,35.02
2018-07-27T19:14:39.607Z,34.77
2018-07-27T19:17:15.553Z,34.62
2018-07-27T19:19:45.319Z,34.56
2018-07-27T19:22:17.629Z,34.36
2018-07-27T19:24:47.230Z,34.29
2018-07-27T19:27:19.967Z,34.14
2018-07-27T19:29:49.506Z,34.08
2018-07-27T19:32:19.262Z,34.01
2018-07-27T19:34:48.543Z,33.90
2018-07-27T19:37:17.617Z,33.76
2018-07-27T19:39:47.361Z,33.71
2018-07-27T19:42:21.112Z,33.59
2018-07-27T19:44:51.607Z,33.53
2018-07-27T19:47:18.020Z,33.70
2018-07-27T19:49:47.560Z,33.36
2018-07-27T19:52:17.136Z,33.21
2018-07-27T19:54:46.983Z,33.09
2018-07-27T19:57:17.262Z,33.01
2018-07-27T19:59:51.537Z,33.06
2018-07-27T20:02:23.787Z,32.97
2018-07-27T20:04:53.178Z,32.91
2018-07-27T20:07:27.666Z,32.86
2018-07-27T20:09:54.848Z,32.79
2018-07-27T20:12:23.640Z,32.92
2018-07-27T20:14:52.495Z,32.72
2018-07-27T20:17:21.332Z,32.63
2018-07-27T20:19:50.212Z,32.56
2018-07-27T20:22:19.098Z,32.51
2018-07-27T20:24:47.959Z,32.46
2018-07-27T20:27:16.907Z,32.59
2018-07-27T20:29:45.969Z,32.39
2018-07-27T20:32:14.850Z,32.31
2018-07-27T20:34:43.697Z,32.26
2018-07-27T20:37:12.606Z,32.21
2018-07-27T20:39:41.441Z,32.18
2018-07-27T20:42:10.335Z,32.05
2018-07-27T20:44:39.211Z,31.98
2018-07-27T20:47:08.095Z,31.92
2018-07-27T20:49:39.874Z,31.85
2018-07-27T20:52:08.752Z,31.74
2018-07-27T20:54:37.675Z,31.68
2018-07-27T20:57:06.568Z,31.55
2018-07-27T20:59:35.369Z,31.50
2018-07-27T21:02:04.371Z,31.44
2018-07-27T21:04:33.323Z,31.40
2018-07-27T21:07:02.097Z,31.31
2018-07-27T21:09:30.947Z,31.23
2018-07-27T21:12:06.682Z,31.48
2018-07-27T21:14:35.508Z,31.27
2018-07-27T21:17:04.835Z,31.17
2018-07-27T21:19:33.680Z,31.09
2018-07-27T21:22:02.624Z,30.98
2018-07-27T21:24:31.398Z,30.83
2018-07-27T21:27:00.253Z,30.73
2018-07-27T21:29:29.090Z,30.97
2018-07-27T21:31:57.912Z,30.72
2018-07-27T21:35:21.767Z,30.58
2018-07-27T21:37:50.561Z,30.40
2018-07-27T21:40:19.470Z,30.29
2018-07-27T21:42:48.326Z,30.21
2018-07-27T21:45:17.240Z,30.12
2018-07-27T21:47:46.113Z,30.02
2018-07-27T21:50:14.980Z,29.88
2018-07-27T21:52:43.800Z,29.80
2018-07-27T21:55:12.665Z,29.73
2018-07-27T21:58:17.201Z,29.68
2018-07-27T22:00:46.072Z,29.57
2018-07-27T22:03:14.894Z,29.86
2018-07-27T22:05:43.768Z,29.61
2018-07-27T22:08:12.622Z,29.47
2018-07-27T22:10:41.820Z,29.38
2018-07-27T22:13:10.785Z,29.30
2018-07-27T22:15:39.564Z,29.26
2018-07-27T22:18:08.399Z,29.21
2018-07-27T22:20:37.372Z,29.16
2018-07-27T22:23:06.213Z,29.10
2018-07-27T22:25:35.087Z,29.07
2018-07-27T22:28:04.108Z,29.04
2018-07-27T22:30:32.996Z,29.03
2018-07-27T22:33:01.852Z,29.04
2018-07-27T22:35:30.684Z,28.97
2018-07-27T22:37:59.555Z,29.21
2018-07-27T22:40:28.420Z,28.98
2018-07-27T22:43:00.559Z,29.19
2018-07-27T22:45:29.400Z,28.93
2018-07-27T22:47:58.269Z,28.83
2018-07-27T22:50:27.171Z,28.78
2018-07-27T22:52:56.067Z,28.80
2018-07-27T22:55:24.926Z,28.80
2018-07-27T22:57:53.768Z,28.76
2018-07-27T23:00:22.580Z,28.65
2018-07-27T23:02:51.444Z,28.62
2018-07-27T23:06:02.615Z,28.68
2018-07-27T23:08:31.448Z,28.94
2018-07-27T23:11:00.291Z,28.79
2018-07-27T23:13:29.108Z,28.78
2018-07-27T23:15:57.994Z,28.73
2018-07-27T23:18:27.239Z,28.74
2018-07-27T23:20:56.086Z,28.71
2018-07-27T23:23:24.948Z,28.73
2018-07-27T23:25:53.789Z,28.88
2018-07-27T23:28:22.676Z,28.69
2018-07-27T23:30:51.556Z,28.69
2018-07-27T23:33:20.436Z,28.68
2018-07-27T23:35:49.281Z,28.68
2018-07-27T23:38:18.137Z,28.56
2018-07-27T23:40:46.998Z,28.53
2018-07-27T23:43:15.872Z,28.43
2018-07-27T23:45:44.704Z,28.34
2018-07-27T23:48:13.547Z,28.30
2018-07-27T23:50:42.490Z,28.23
2018-07-27T23:53:11.369Z,28.17
2018-07-27T23:55:40.208Z,28.17
2018-07-27T23:58:09.023Z,28.18
